Time;durP1;ratioP1;P1;durP2;ratioP2;P2;SDS_P1;SDS_P2;PMS_P1;PMS_P2;Temp;Humidity;BMP_temperature;BMP_pressure;BME280_temperature;BME280_humidity;BME280_pressure;Samples;Min_cycle;Max_cycle;Signal;HPM_P1;HPM_P2
2020/12/23 00:00:20;;;;;;;1.50;0.20;;;;;;;8.07;100.00;100882.84;4961229;28;20213;-81
2020/12/23 00:02:45;;;;;;;1.37;0.17;;;;;;;8.03;100.00;100889.22;4959653;28;20564;-80
2020/12/23 00:05:17;;;;;;;1.60;0.30;;;;;;;8.02;100.00;100898.34;4960727;28;20608;-80
2020/12/23 00:07:45;;;;;;;1.10;0.10;;;;;;;8.01;100.00;100897.56;4968359;28;20642;-80
2020/12/23 00:10:11;;;;;;;1.20;0.10;;;;;;;7.92;100.00;100886.16;4959260;28;20445;-81
2020/12/23 00:12:37;;;;;;;1.27;0.10;;;;;;;7.87;100.00;100890.94;4964845;28;20221;-81
2020/12/23 00:15:05;;;;;;;1.40;0.27;;;;;;;7.86;100.00;100889.34;4950488;28;20446;-80
2020/12/23 00:17:31;;;;;;;1.30;0.23;;;;;;;7.88;100.00;100889.81;4946128;28;20902;-80
2020/12/23 00:19:58;;;;;;;1.47;0.17;;;;;;;7.83;100.00;100896.19;4945048;28;20502;-80
2020/12/23 00:22:24;;;;;;;1.20;0.10;;;;;;;7.70;100.00;100904.50;4971456;28;20471;-80
2020/12/23 00:24:49;;;;;;;1.40;0.10;;;;;;;7.62;100.00;100895.44;5002010;28;20185;-80
2020/12/23 00:27:15;;;;;;;1.23;0.10;;;;;;;7.65;100.00;100894.75;4995688;28;20188;-80
2020/12/23 00:29:40;;;;;;;1.17;0.10;;;;;;;7.70;100.00;100880.38;5020874;28;20231;-80
2020/12/23 00:32:06;;;;;;;1.63;0.30;;;;;;;7.67;100.00;100875.66;5026527;28;20177;-80
2020/12/23 00:34:32;;;;;;;1.83;0.20;;;;;;;7.64;100.00;100876.34;5023202;28;20700;-80
2020/12/23 00:37:00;;;;;;;1.20;0.10;;;;;;;7.54;100.00;100868.69;5000236;28;20217;-80
2020/12/23 00:39:25;;;;;;;1.57;0.30;;;;;;;7.43;100.00;100871.00;5037496;28;20959;-80
2020/12/23 00:41:52;;;;;;;1.30;0.20;;;;;;;7.35;100.00;100868.41;5022199;28;20513;-80
2020/12/23 00:44:17;;;;;;;1.80;0.27;;;;;;;7.28;100.00;100858.97;5022725;28;20281;-81
2020/12/23 00:46:44;;;;;;;1.53;0.20;;;;;;;7.29;100.00;100868.59;5007405;28;20473;-81
2020/12/23 00:49:10;;;;;;;1.77;0.13;;;;;;;7.26;100.00;100869.25;5032525;28;20271;-82
2020/12/23 00:51:35;;;;;;;1.87;0.20;;;;;;;7.25;100.00;100869.56;5025839;28;20530;-82
2020/12/23 00:54:01;;;;;;;1.20;0.10;;;;;;;7.20;100.00;100878.56;4997893;28;20212;-81
2020/12/23 00:56:28;;;;;;;1.10;0.10;;;;;;;7.18;100.00;100886.16;5017917;28;20191;-81
2020/12/23 00:58:54;;;;;;;1.20;0.10;;;;;;;7.05;100.00;100887.19;5026318;28;20459;-81
2020/12/23 01:01:39;;;;;;;1.10;0.10;;;;;;;7.04;100.00;100876.81;5030370;28;20216;-80
2020/12/23 01:04:05;;;;;;;2.13;0.20;;;;;;;7.05;100.00;100867.66;4961070;28;20232;-82
2020/12/23 01:06:31;;;;;;;1.70;0.20;;;;;;;7.08;100.00;100875.06;4933215;29;20451;-81
2020/12/23 01:08:56;;;;;;;1.17;0.10;;;;;;;7.09;100.00;100872.03;4952582;28;20191;-82
2020/12/23 01:11:22;;;;;;;1.30;0.20;;;;;;;6.95;100.00;100876.84;4948861;29;20265;-80
2020/12/23 01:13:47;;;;;;;1.47;0.20;;;;;;;6.92;100.00;100888.22;4956947;28;20203;-80
2020/12/23 01:16:19;;;;;;;1.30;0.20;;;;;;;6.80;100.00;100882.78;4948314;29;20650;-80
2020/12/23 01:18:44;;;;;;;1.30;0.17;;;;;;;6.79;100.00;100891.94;4949569;28;20199;-82
2020/12/23 01:21:10;;;;;;;1.30;0.20;;;;;;;6.73;100.00;100895.09;4955502;28;20677;-82
2020/12/23 01:23:35;;;;;;;1.40;0.20;;;;;;;6.64;100.00;100889.78;4944936;29;20716;-80
2020/12/23 01:26:01;;;;;;;1.30;0.20;;;;;;;6.75;100.00;100899.03;4938823;29;20218;-82
2020/12/23 01:28:26;;;;;;;1.10;0.10;;;;;;;6.70;100.00;100896.50;4944790;28;20265;-81
2020/12/23 01:30:52;;;;;;;1.13;0.10;;;;;;;6.60;100.00;100907.56;4948448;28;20647;-80
2020/12/23 01:33:17;;;;;;;1.33;0.10;;;;;;;6.68;100.00;100914.78;4949577;29;20341;-81
2020/12/23 01:35:43;;;;;;;1.37;0.20;;;;;;;6.53;100.00;100901.16;4942960;28;20217;-80
2020/12/23 01:38:29;;;;;;;1.20;0.10;;;;;;;6.53;100.00;100888.56;4936484;28;20230;-81
2020/12/23 01:41:03;;;;;;;1.43;0.20;;;;;;;6.51;100.00;100892.66;4926897;28;20472;-79
2020/12/23 01:43:29;;;;;;;1.97;0.30;;;;;;;6.48;100.00;100893.31;4971077;28;21091;-81
2020/12/23 01:45:55;;;;;;;2.80;0.40;;;;;;;6.53;100.00;100893.94;4954389;28;20543;-80
2020/12/23 01:48:23;;;;;;;1.63;0.30;;;;;;;6.46;100.00;100884.84;4984034;28;20949;-79
2020/12/23 01:50:49;;;;;;;1.40;0.10;;;;;;;6.42;100.00;100887.38;4981989;28;20205;-80
2020/12/23 01:53:18;;;;;;;1.20;0.10;;;;;;;6.43;100.00;100886.25;4967245;28;20486;-79
2020/12/23 01:55:45;;;;;;;1.30;0.10;;;;;;;6.43;100.00;100886.25;4969188;28;20228;-80
2020/12/23 01:58:31;;;;;;;2.33;0.20;;;;;;;6.43;100.00;100885.50;4967720;28;20444;-80
2020/12/23 02:00:58;;;;;;;1.53;0.30;;;;;;;6.41;100.00;100896.47;4952402;28;20462;-80
2020/12/23 02:03:24;;;;;;;1.20;0.10;;;;;;;6.38;100.00;100889.13;4954049;28;20478;-80
2020/12/23 02:05:49;;;;;;;1.47;0.40;;;;;;;6.29;100.00;100897.16;4956644;28;22355;-80
2020/12/23 02:08:15;;;;;;;1.67;0.20;;;;;;;6.31;100.00;100886.13;4966371;28;20449;-80
2020/12/23 02:10:40;;;;;;;1.40;0.10;;;;;;;6.18;100.00;100889.81;4939715;29;20191;-79
2020/12/23 02:13:06;;;;;;;1.40;0.10;;;;;;;6.20;100.00;100892.94;4953547;28;20222;-80
2020/12/23 02:15:32;;;;;;;2.13;0.20;;;;;;;6.16;100.00;100881.31;4940089;28;20205;-80
2020/12/23 02:17:57;;;;;;;1.90;0.30;;;;;;;6.12;100.00;100891.88;4973208;28;20205;-80
2020/12/23 02:20:23;;;;;;;1.40;0.10;;;;;;;6.05;100.00;100894.25;4985174;28;20383;-80
2020/12/23 02:22:49;;;;;;;1.10;0.00;;;;;;;5.98;100.00;100901.19;4961076;28;20256;-80
2020/12/23 02:25:14;;;;;;;1.17;0.10;;;;;;;5.96;100.00;100879.34;4975130;28;20191;-80
2020/12/23 02:27:40;;;;;;;1.70;0.20;;;;;;;5.99;100.00;100884.03;4962391;28;20186;-81
2020/12/23 02:30:09;;;;;;;1.17;0.10;;;;;;;5.99;100.00;100892.84;4985928;28;20441;-81
2020/12/23 02:32:35;;;;;;;1.63;0.17;;;;;;;5.93;100.00;100882.63;4970450;28;20638;-80
2020/12/23 02:35:01;;;;;;;1.60;0.30;;;;;;;5.85;100.00;100880.75;4971138;28;20491;-81
2020/12/23 02:37:26;;;;;;;1.20;0.10;;;;;;;5.88;100.00;100880.13;4986203;28;20455;-81
2020/12/23 02:39:55;;;;;;;1.50;0.20;;;;;;;5.87;100.00;100882.00;5029315;28;20211;-80
2020/12/23 02:42:22;;;;;;;1.20;0.10;;;;;;;5.86;100.00;100877.78;5019475;28;20507;-80
2020/12/23 02:44:48;;;;;;;1.20;0.10;;;;;;;5.89;100.00;100871.78;5020567;28;20529;-80
2020/12/23 02:47:15;;;;;;;1.30;0.10;;;;;;;5.84;100.00;100868.50;5002634;28;20895;-80
2020/12/23 02:49:42;;;;;;;2.03;0.20;;;;;;;5.84;100.00;100879.19;5032741;28;20198;-80
2020/12/23 02:52:08;;;;;;;1.50;0.33;;;;;;;5.80;100.00;100878.22;5020047;28;20505;-81
2020/12/23 02:54:34;;;;;;;1.77;0.20;;;;;;;5.79;100.00;100879.34;5037417;28;20502;-81
2020/12/23 02:57:00;;;;;;;1.40;0.20;;;;;;;5.76;100.00;100886.09;5022721;28;20513;-80
2020/12/23 02:59:26;;;;;;;1.20;0.10;;;;;;;5.73;100.00;100888.63;5014750;28;20857;-80
2020/12/23 03:01:51;;;;;;;1.20;0.10;;;;;;;5.72;100.00;100865.66;5031120;28;20180;-80
2020/12/23 03:04:17;;;;;;;1.50;0.20;;;;;;;5.59;100.00;100866.63;5029513;28;20234;-81
2020/12/23 03:06:42;;;;;;;1.53;0.20;;;;;;;5.56;100.00;100869.91;5009585;28;20641;-81
2020/12/23 03:09:11;;;;;;;1.20;0.10;;;;;;;5.50;100.00;100863.94;5028754;28;20199;-81
2020/12/23 03:11:38;;;;;;;1.20;0.10;;;;;;;5.53;100.00;100866.00;5015648;28;20499;-81
2020/12/23 03:14:04;;;;;;;1.23;0.13;;;;;;;5.51;100.00;100870.88;5023748;28;20474;-80
2020/12/23 03:16:30;;;;;;;1.30;0.10;;;;;;;5.37;100.00;100860.38;5030438;28;20948;-80
2020/12/23 03:18:56;;;;;;;1.30;0.10;;;;;;;5.52;100.00;100864.44;5017913;28;20446;-80
2020/12/23 03:21:21;;;;;;;1.23;0.10;;;;;;;5.56;100.00;100872.59;5023578;28;20187;-80
2020/12/23 03:23:47;;;;;;;1.73;0.20;;;;;;;5.63;100.00;100867.56;5025374;28;20290;-79
2020/12/23 03:26:13;;;;;;;1.20;0.10;;;;;;;5.57;100.00;100871.50;5033518;28;20180;-80
2020/12/23 03:28:38;;;;;;;1.37;0.30;;;;;;;5.57;100.00;100879.50;5031461;28;20186;-80
2020/12/23 03:31:04;;;;;;;1.40;0.10;;;;;;;5.59;100.00;100878.09;5028271;28;20189;-80
2020/12/23 03:33:30;;;;;;;1.17;0.10;;;;;;;5.53;100.00;100886.59;5029782;28;20646;-80
2020/12/23 03:35:57;;;;;;;1.47;0.17;;;;;;;5.44;100.00;100884.69;5018670;28;20196;-79
2020/12/23 03:38:23;;;;;;;1.50;0.10;;;;;;;5.43;100.00;100885.81;5021050;28;20528;-80
2020/12/23 03:40:48;;;;;;;1.20;0.20;;;;;;;5.33;100.00;100875.44;5032069;28;20466;-79
2020/12/23 03:43:14;;;;;;;1.20;0.10;;;;;;;5.38;100.00;100869.94;5030951;28;20839;-79
2020/12/23 03:45:40;;;;;;;1.30;0.10;;;;;;;5.39;100.00;100871.50;5024319;28;20273;-79
2020/12/23 03:48:05;;;;;;;1.30;0.10;;;;;;;5.56;100.00;100878.72;5039440;28;20278;-79
2020/12/23 03:50:31;;;;;;;1.30;0.20;;;;;;;5.63;100.00;100872.91;5023621;28;20443;-79
2020/12/23 03:52:57;;;;;;;1.40;0.20;;;;;;;5.62;100.00;100865.97;5034071;23;20234;-79
2020/12/23 03:55:22;;;;;;;1.20;0.10;;;;;;;5.68;100.00;100867.41;5006474;28;20439;-77
2020/12/23 03:57:48;;;;;;;1.40;0.30;;;;;;;5.73;100.00;100867.25;5011293;28;20188;-77
2020/12/23 04:00:13;;;;;;;1.30;0.20;;;;;;;5.82;100.00;100866.13;5011534;28;20703;-77
2020/12/23 04:02:39;;;;;;;1.63;0.10;;;;;;;5.92;100.00;100870.38;5012323;28;20299;-77
2020/12/23 04:05:06;;;;;;;1.40;0.20;;;;;;;5.94;100.00;100857.50;5009234;28;20726;-77
2020/12/23 04:07:32;;;;;;;1.30;0.10;;;;;;;5.89;100.00;100865.66;5014427;28;20192;-78
2020/12/23 04:09:58;;;;;;;1.20;0.10;;;;;;;5.92;100.00;100859.69;5012421;28;20708;-78
2020/12/23 04:12:23;;;;;;;5.03;0.40;;;;;;;5.86;100.00;100861.75;5005603;28;20950;-79
2020/12/23 04:14:49;;;;;;;1.30;0.17;;;;;;;5.99;100.00;100862.66;5006684;28;20180;-79
2020/12/23 04:17:14;;;;;;;1.40;0.20;;;;;;;5.89;100.00;100846.94;5008870;28;20188;-79
2020/12/23 04:19:40;;;;;;;2.33;0.30;;;;;;;5.92;100.00;100849.78;5010069;28;20193;-78
2020/12/23 04:22:05;;;;;;;1.40;0.20;;;;;;;6.02;100.00;100843.31;5012710;28;20188;-79
2020/12/23 04:24:31;;;;;;;1.97;0.30;;;;;;;6.05;100.00;100854.16;5014048;28;20258;-79
2020/12/23 04:26:56;;;;;;;1.30;0.23;;;;;;;6.00;100.00;100850.88;5013865;28;20271;-79
2020/12/23 04:29:42;;;;;;;1.20;0.10;;;;;;;5.86;100.00;100845.72;5003516;28;20626;-78
2020/12/23 04:32:08;;;;;;;1.70;0.20;;;;;;;5.70;100.00;100846.50;4946281;28;20220;-79
2020/12/23 04:34:33;;;;;;;2.13;0.60;;;;;;;5.59;100.00;100850.59;4967912;28;20460;-79
2020/12/23 04:37:01;;;;;;;1.60;0.23;;;;;;;5.56;100.00;100843.22;4955159;28;20205;-79
2020/12/23 04:39:27;;;;;;;2.20;0.60;;;;;;;5.53;100.00;100841.19;4972286;28;20953;-80
2020/12/23 04:41:52;;;;;;;2.50;0.93;;;;;;;5.53;100.00;100846.53;4957772;28;20185;-79
2020/12/23 04:44:18;;;;;;;1.77;0.30;;;;;;;5.36;100.00;100848.09;4947317;29;20249;-79
2020/12/23 04:46:44;;;;;;;2.60;0.30;;;;;;;5.38;100.00;100851.25;4968125;28;20206;-79
2020/12/23 04:49:09;;;;;;;1.80;0.20;;;;;;;5.51;100.00;100849.50;4956588;28;20281;-79
2020/12/23 04:51:37;;;;;;;1.40;0.10;;;;;;;5.61;100.00;100843.84;4975013;28;20194;-79
2020/12/23 04:54:06;;;;;;;1.37;0.10;;;;;;;5.49;100.00;100847.16;4965543;28;20308;-80
2020/12/23 04:56:33;;;;;;;1.30;0.27;;;;;;;5.48;100.00;100842.91;4975734;28;20461;-78
2020/12/23 04:59:01;;;;;;;1.20;0.10;;;;;;;5.55;100.00;100834.44;4973775;28;20449;-80
2020/12/23 05:01:28;;;;;;;1.30;0.20;;;;;;;5.43;100.00;100835.06;4975704;28;20445;-80
2020/12/23 05:03:54;;;;;;;1.30;0.10;;;;;;;5.49;100.00;100836.50;4974068;28;20477;-79
2020/12/23 05:06:21;;;;;;;1.80;0.23;;;;;;;5.55;100.00;100834.44;4974344;28;20424;-79
2020/12/23 05:08:47;;;;;;;1.50;0.20;;;;;;;5.68;100.00;100822.78;4986950;28;20455;-79
2020/12/23 05:11:13;;;;;;;1.30;0.10;;;;;;;5.57;100.00;100826.09;4993232;28;20534;-79
2020/12/23 05:13:40;;;;;;;1.30;0.17;;;;;;;5.63;100.00;100822.16;5006477;28;20483;-81
2020/12/23 05:16:11;;;;;;;1.23;0.10;;;;;;;5.59;100.00;100824.69;4995601;28;20196;-80
2020/12/23 05:18:40;;;;;;;1.30;0.10;;;;;;;5.58;100.00;100825.78;5012579;28;20431;-78
2020/12/23 05:21:17;;;;;;;1.40;0.20;;;;;;;5.76;100.00;100827.31;5015006;28;20493;-79
2020/12/23 05:23:45;;;;;;;1.20;0.07;;;;;;;5.74;100.00;100824.19;5009178;28;20501;-79
2020/12/23 05:26:11;;;;;;;1.20;0.10;;;;;;;5.74;100.00;100828.72;5013463;28;20443;-79
2020/12/23 05:28:37;;;;;;;1.40;0.20;;;;;;;5.80;100.00;100844.28;5015243;28;20435;-80
2020/12/23 05:31:04;;;;;;;1.30;0.10;;;;;;;5.79;100.00;100852.63;5003209;28;20459;-81
2020/12/23 05:33:33;;;;;;;1.70;0.23;;;;;;;5.83;100.00;100842.84;5016924;28;20193;-81
2020/12/23 05:36:04;;;;;;;1.80;0.30;;;;;;;5.88;100.00;100854.22;5009931;28;20440;-80
2020/12/23 05:38:30;;;;;;;2.70;0.33;;;;;;;5.86;100.00;100848.41;5012495;28;20513;-81
2020/12/23 05:41:01;;;;;;;1.83;0.20;;;;;;;5.77;100.00;100849.50;5007061;28;20474;-80
2020/12/23 05:43:28;;;;;;;1.27;0.10;;;;;;;5.69;100.00;100851.03;5007255;28;20456;-80
2020/12/23 05:45:58;;;;;;;1.20;0.10;;;;;;;5.61;100.00;100853.75;5010355;28;20957;-80
2020/12/23 05:48:25;;;;;;;1.50;0.20;;;;;;;5.66;100.00;100856.25;5018615;28;20499;-80
2020/12/23 05:50:51;;;;;;;1.30;0.20;;;;;;;5.76;100.00;100847.91;5018769;28;20792;-79
2020/12/23 05:53:16;;;;;;;2.00;0.30;;;;;;;5.86;100.00;100839.59;5015779;28;20477;-80
2020/12/23 05:55:47;;;;;;;1.80;0.20;;;;;;;5.94;100.00;100857.50;5015359;28;20204;-80
2020/12/23 05:58:30;;;;;;;2.27;0.27;;;;;;;6.03;100.00;100852.91;5018389;28;20181;-80
2020/12/23 06:01:00;;;;;;;1.97;0.10;;;;;;;5.96;100.00;100849.94;5013704;28;20462;-80
2020/12/23 06:03:29;;;;;;;1.30;0.10;;;;;;;5.97;100.00;100843.47;5017723;28;21006;-80
2020/12/23 06:06:00;;;;;;;1.40;0.10;;;;;;;5.98;100.00;100847.75;5006641;28;20801;-79
2020/12/23 06:08:36;;;;;;;2.60;0.10;;;;;;;5.96;100.00;100833.91;5018140;28;20469;-79
2020/12/23 06:11:40;;;;;;;1.20;0.10;;;;;;;6.00;100.00;100837.50;5018281;28;20443;-80
2020/12/23 06:14:06;;;;;;;1.60;0.10;;;;;;;6.00;100.00;100835.59;5011092;28;20458;-80
2020/12/23 06:16:34;;;;;;;1.47;0.20;;;;;;;5.79;100.00;100837.38;5005787;28;20534;-80
2020/12/23 06:19:02;;;;;;;1.70;0.20;;;;;;;5.71;100.00;100845.41;5016117;28;20486;-80
2020/12/23 06:21:28;;;;;;;1.40;0.23;;;;;;;5.70;100.00;100846.50;5009534;28;20623;-80
2020/12/23 06:24:05;;;;;;;2.03;0.27;;;;;;;5.64;100.00;100837.88;5007265;28;20463;-79
2020/12/23 06:26:33;;;;;;;1.80;0.30;;;;;;;5.76;100.00;100838.00;5007519;28;20185;-80
2020/12/23 06:29:00;;;;;;;1.20;0.20;;;;;;;5.88;100.00;100842.72;5012281;28;20435;-79
2020/12/23 06:31:29;;;;;;;1.73;0.10;;;;;;;5.94;100.00;100842.22;5013099;28;20507;-80
2020/12/23 06:33:56;;;;;;;1.30;0.10;;;;;;;5.97;100.00;100843.47;5016492;28;20459;-80
2020/12/23 06:36:47;;;;;;;1.30;0.17;;;;;;;5.94;100.00;100846.81;5002149;28;20443;-79
2020/12/23 06:39:40;;;;;;;1.37;0.10;;;;;;;5.99;100.00;100847.41;4936635;29;20486;-79
2020/12/23 06:42:05;;;;;;;3.70;0.40;;;;;;;5.92;100.00;100860.47;4949301;29;20450;-79
2020/12/23 06:44:43;;;;;;;2.13;0.10;;;;;;;6.04;100.00;100863.25;4938607;29;20683;-80
2020/12/23 06:47:19;;;;;;;1.40;0.20;;;;;;;6.06;100.00;100870.97;4921799;29;20194;-80
2020/12/23 06:49:49;;;;;;;1.20;0.10;;;;;;;6.08;100.00;100868.75;4954080;29;20871;-80
2020/12/23 06:52:27;;;;;;;1.30;0.20;;;;;;;5.92;100.00;100867.72;4933571;29;20962;-79
2020/12/23 06:55:00;;;;;;;1.90;0.33;;;;;;;5.86;100.00;100866.31;4936269;29;20464;-80
2020/12/23 06:57:38;;;;;;;1.50;0.20;;;;;;;5.84;100.00;100863.16;4952904;28;20474;-80
2020/12/23 07:00:13;;;;;;;1.53;0.10;;;;;;;5.88;100.00;100862.22;4954619;29;20470;-79
2020/12/23 07:02:42;;;;;;;1.50;0.27;;;;;;;5.86;100.00;100863.63;4934500;28;20446;-80
2020/12/23 07:05:09;;;;;;;1.70;0.17;;;;;;;5.87;100.00;100860.63;4954265;29;20965;-80
2020/12/23 07:07:38;;;;;;;1.57;0.20;;;;;;;5.86;100.00;100866.31;4950210;29;20817;-80
2020/12/23 07:10:14;;;;;;;1.47;0.20;;;;;;;5.86;100.00;100871.66;4938218;29;20508;-79
2020/12/23 07:12:54;;;;;;;1.40;0.20;;;;;;;5.93;100.00;100877.28;4951865;29;20509;-79
2020/12/23 07:15:20;;;;;;;1.80;0.20;;;;;;;5.86;100.00;100885.81;4937387;28;20454;-79
2020/12/23 07:17:46;;;;;;;1.30;0.10;;;;;;;5.81;100.00;100880.56;5006475;28;20443;-79
2020/12/23 07:20:33;;;;;;;1.20;0.10;;;;;;;5.64;100.00;100885.16;4999960;28;20252;-80
2020/12/23 07:23:04;;;;;;;1.53;0.10;;;;;;;5.68;100.00;100880.75;4968719;28;20468;-80
2020/12/23 07:25:34;;;;;;;1.40;0.20;;;;;;;5.61;100.00;100881.25;4956434;28;20492;-79
2020/12/23 07:27:59;;;;;;;1.30;0.10;;;;;;;5.71;100.00;100872.13;4952243;28;20944;-80
2020/12/23 07:30:26;;;;;;;1.80;0.10;;;;;;;5.65;100.00;100873.38;4955781;28;20436;-81
2020/12/23 07:33:08;;;;;;;1.20;0.10;;;;;;;5.63;100.00;100867.56;4957404;28;20217;-80
2020/12/23 07:35:35;;;;;;;1.20;0.10;;;;;;;5.76;100.00;100871.94;4955812;28;20510;-79
2020/12/23 07:38:03;;;;;;;3.47;0.40;;;;;;;5.86;100.00;100872.44;4973535;28;20519;-79
2020/12/23 07:40:30;;;;;;;1.40;0.30;;;;;;;5.81;100.00;100866.44;4942653;28;20470;-79
2020/12/23 07:42:56;;;;;;;1.20;0.10;;;;;;;5.84;100.00;100860.50;4957196;28;20982;-80
2020/12/23 07:45:23;;;;;;;1.20;0.10;;;;;;;5.97;100.00;100862.19;4974230;28;20441;-79
2020/12/23 07:47:58;;;;;;;1.20;0.10;;;;;;;5.98;100.00;100867.22;4973147;28;20469;-79
2020/12/23 07:50:26;;;;;;;1.47;0.10;;;;;;;5.97;100.00;100868.31;4971603;28;20453;-78
2020/12/23 07:52:52;;;;;;;1.53;0.20;;;;;;;5.97;100.00;100873.66;4967800;28;20542;-79
2020/12/23 07:55:19;;;;;;;2.67;0.40;;;;;;;6.06;100.00;100855.72;4944548;28;20884;-79
2020/12/23 07:57:48;;;;;;;1.60;0.20;;;;;;;6.02;100.00;100870.81;4947966;28;20471;-78
2020/12/23 08:00:14;;;;;;;1.67;0.37;;;;;;;6.04;100.00;100855.25;4994962;28;20869;-79
2020/12/23 08:02:41;;;;;;;1.30;0.17;;;;;;;6.07;100.00;100846.59;5003915;28;20797;-78
2020/12/23 08:05:08;;;;;;;1.30;0.10;;;;;;;6.02;100.00;100837.97;5007681;28;20470;-79
2020/12/23 08:07:44;;;;;;;1.20;0.10;;;;;;;6.02;100.00;100830.72;5006311;28;20538;-77
2020/12/23 08:10:12;;;;;;;1.20;0.10;;;;;;;5.98;100.00;100834.38;5007767;28;20456;-77
2020/12/23 08:12:39;;;;;;;2.43;0.17;;;;;;;6.01;100.00;100831.84;5007380;28;20463;-77
2020/12/23 08:15:10;;;;;;;1.27;0.17;;;;;;;6.08;100.00;100837.47;5014233;28;20432;-77
2020/12/23 08:17:35;;;;;;;1.47;0.10;;;;;;;6.06;100.00;100834.34;4989388;28;20448;-78
2020/12/23 08:20:05;;;;;;;1.20;0.10;;;;;;;5.91;100.00;100831.38;5010800;28;20862;-78
2020/12/23 08:22:32;;;;;;;1.20;0.10;;;;;;;5.81;100.00;100823.69;5007116;28;20199;-78
2020/12/23 08:25:04;;;;;;;1.20;0.10;;;;;;;5.69;100.00;100819.00;5005172;28;20538;-78
2020/12/23 08:27:30;;;;;;;1.40;0.10;;;;;;;5.83;100.00;100816.13;4984114;28;20448;-77
2020/12/23 08:29:57;;;;;;;2.17;0.30;;;;;;;5.82;100.00;100817.25;5011490;28;20485;-78
2020/12/23 08:32:30;;;;;;;1.67;0.10;;;;;;;5.82;100.00;100812.69;5007133;28;20852;-78
2020/12/23 08:34:59;;;;;;;1.30;0.10;;;;;;;5.86;100.00;100813.66;5010457;28;20447;-78
2020/12/23 08:37:25;;;;;;;1.27;0.10;;;;;;;5.91;100.00;100813.47;5008873;28;20452;-77
2020/12/23 08:40:00;;;;;;;1.20;0.20;;;;;;;6.02;100.00;100816.59;5001800;28;20861;-77
2020/12/23 08:42:26;;;;;;;1.47;0.10;;;;;;;6.05;100.00;100814.06;5009222;28;20196;-78
2020/12/23 08:44:56;;;;;;;1.97;0.20;;;;;;;5.95;100.00;100821.63;5003832;28;20454;-77
2020/12/23 08:47:33;;;;;;;1.20;0.10;;;;;;;5.98;100.00;100819.09;5022682;28;20459;-78
2020/12/23 08:50:00;;;;;;;1.80;0.20;;;;;;;6.07;100.00;100816.41;5014617;28;20443;-78
2020/12/23 08:52:26;;;;;;;1.30;0.10;;;;;;;6.15;100.00;100815.59;5015979;28;20424;-77
2020/12/23 08:54:53;;;;;;;1.20;0.07;;;;;;;5.96;100.00;100818.63;5015124;28;21002;-78
2020/12/23 08:57:26;;;;;;;1.80;0.20;;;;;;;5.98;100.00;100803.06;5022652;28;20544;-77
2020/12/23 08:59:53;;;;;;;1.20;0.10;;;;;;;6.04;100.00;100798.34;5008625;28;20463;-77
2020/12/23 09:02:19;;;;;;;1.30;0.20;;;;;;;6.11;100.00;100803.97;5018171;28;20426;-77
2020/12/23 09:04:45;;;;;;;1.60;0.10;;;;;;;6.18;100.00;100812.28;5027984;28;20820;-77
2020/12/23 09:07:10;;;;;;;1.83;0.27;;;;;;;6.18;100.00;100805.03;5009936;28;20247;-77
2020/12/23 09:09:36;;;;;;;1.20;0.10;;;;;;;6.24;100.00;100808.31;5011914;28;20177;-78
2020/12/23 09:12:04;;;;;;;2.10;0.20;;;;;;;6.29;100.00;100805.47;5024197;28;20680;-77
2020/12/23 09:14:38;;;;;;;1.20;0.10;;;;;;;6.33;100.00;100801.81;5019279;28;20463;-77
2020/12/23 09:17:06;;;;;;;1.10;0.10;;;;;;;6.19;100.00;100803.16;5031065;28;20512;-77
2020/12/23 09:19:42;;;;;;;1.20;0.10;;;;;;;5.88;100.00;100808.00;5028959;28;20838;-77
2020/12/23 09:22:08;;;;;;;1.10;0.10;;;;;;;5.97;100.00;100806.06;5019933;28;20446;-78
2020/12/23 09:24:34;;;;;;;1.10;0.10;;;;;;;6.00;100.00;100792.09;5015356;28;20470;-77
2020/12/23 09:27:00;;;;;;;2.13;0.30;;;;;;;6.12;100.00;100795.63;5015729;28;20816;-78
2020/12/23 09:29:41;;;;;;;1.27;0.07;;;;;;;6.13;100.00;100796.41;5020660;28;20425;-77
2020/12/23 09:32:06;;;;;;;1.10;0.10;;;;;;;6.16;100.00;100801.13;5010172;28;20176;-77
2020/12/23 09:34:32;;;;;;;1.20;0.10;;;;;;;6.18;100.00;100796.22;5019430;28;20794;-78
2020/12/23 09:36:57;;;;;;;1.83;0.20;;;;;;;6.21;100.00;100799.03;5016388;28;20250;-77
2020/12/23 09:39:23;;;;;;;1.20;0.10;;;;;;;6.05;100.00;100792.69;5010834;28;20197;-77
2020/12/23 09:41:59;;;;;;;1.20;0.13;;;;;;;6.12;100.00;100792.97;5014798;28;20176;-77
2020/12/23 09:44:25;;;;;;;1.60;0.20;;;;;;;5.94;100.00;100788.78;5009555;28;21032;-77
2020/12/23 09:46:50;;;;;;;2.80;0.20;;;;;;;5.86;100.00;100780.81;5014960;28;20486;-77
2020/12/23 09:49:16;;;;;;;2.10;0.30;;;;;;;5.80;100.00;100780.16;5018267;28;20510;-79
2020/12/23 09:51:49;;;;;;;2.17;0.27;;;;;;;5.78;100.00;100781.59;5008187;28;20564;-79
2020/12/23 09:54:14;;;;;;;1.30;0.10;;;;;;;5.93;100.00;100783.75;5014436;28;20240;-78
2020/12/23 09:56:50;;;;;;;2.40;0.27;;;;;;;6.00;100.00;100770.69;5001251;28;21151;-79
2020/12/23 09:59:17;;;;;;;1.40;0.20;;;;;;;5.92;100.00;100766.94;5018510;28;20230;-79
2020/12/23 10:01:43;;;;;;;1.50;0.13;;;;;;;6.11;100.00;100769.22;5036342;28;20896;-79
2020/12/23 10:04:08;;;;;;;1.70;0.20;;;;;;;6.16;100.00;100767.16;5011196;28;20468;-77
2020/12/23 10:06:34;;;;;;;1.30;0.10;;;;;;;6.35;100.00;100762.16;5010762;28;20259;-77
2020/12/23 10:09:00;;;;;;;1.60;0.27;;;;;;;6.45;100.00;100754.88;5016487;28;20188;-78
2020/12/23 10:11:27;;;;;;;1.73;0.20;;;;;;;6.55;100.00;100755.28;5007437;28;20186;-77
2020/12/23 10:13:52;;;;;;;1.77;0.20;;;;;;;6.50;100.00;100758.16;5002384;28;20491;-78
2020/12/23 10:16:18;;;;;;;1.20;0.10;;;;;;;6.58;100.00;100746.59;4999477;28;20446;-77
2020/12/23 10:18:43;;;;;;;1.83;0.37;;;;;;;6.63;100.00;100729.59;5000033;28;20510;-77
2020/12/23 10:21:10;;;;;;;1.80;0.20;;;;;;;6.55;100.00;100722.41;4995793;28;20201;-77
2020/12/23 10:23:39;;;;;;;1.70;0.20;;;;;;;6.57;100.00;100723.66;5001974;28;20196;-77
2020/12/23 10:26:04;;;;;;;1.70;0.30;;;;;;;6.66;100.00;100712.91;5008871;28;20852;-77
2020/12/23 10:28:30;;;;;;;1.70;0.30;;;;;;;6.57;100.00;100712.94;5005503;28;20551;-77
2020/12/23 10:33:34;;;;;;;1.20;0.10;;;;;;;6.76;100.00;100696.41;5004413;28;20238;-79
2020/12/23 10:36:08;;;;;;;1.30;0.10;;;;;;;6.82;100.00;100687.88;5028741;28;20509;-79
2020/12/23 10:38:33;;;;;;;1.40;0.10;;;;;;;6.81;100.00;100672.94;5029183;28;20461;-78
2020/12/23 10:40:59;;;;;;;1.37;0.20;;;;;;;6.99;100.00;100679.69;5011948;28;20467;-78
2020/12/23 10:43:25;;;;;;;1.40;0.20;;;;;;;7.00;100.00;100686.63;5030854;28;20434;-79
2020/12/23 10:45:50;;;;;;;1.80;0.20;;;;;;;7.04;100.00;100679.50;5017159;28;20222;-79
2020/12/23 10:48:17;;;;;;;1.40;0.20;;;;;;;7.02;100.00;100687.06;5013777;28;20176;-79
2020/12/23 10:50:44;;;;;;;1.40;0.20;;;;;;;7.09;100.00;100673.91;5028342;28;20210;-79
2020/12/23 10:53:10;;;;;;;1.50;0.30;;;;;;;7.20;100.00;100668.94;5045558;28;20463;-78
2020/12/23 10:55:36;;;;;;;1.87;0.30;;;;;;;7.31;100.00;100656.69;5027795;28;20636;-79
2020/12/23 10:58:02;;;;;;;1.30;0.10;;;;;;;7.44;100.00;100663.63;5052687;28;20477;-78
2020/12/23 11:00:29;;;;;;;1.40;0.10;;;;;;;7.51;100.00;100663.81;5033224;28;20774;-77
2020/12/23 11:02:55;;;;;;;1.30;0.17;;;;;;;7.56;100.00;100650.22;5024941;28;20451;-78
2020/12/23 11:05:21;;;;;;;1.50;0.20;;;;;;;7.55;100.00;100653.25;5030893;28;21044;-78
2020/12/23 11:07:47;;;;;;;1.33;0.17;;;;;;;7.28;100.00;100650.09;5034981;28;20986;-78
2020/12/23 11:10:14;;;;;;;1.40;0.10;;;;;;;7.34;100.00;100636.50;5024568;28;20179;-78
2020/12/23 11:12:39;;;;;;;1.20;0.10;;;;;;;7.46;100.00;100634.59;5026407;28;20472;-78
2020/12/23 11:15:05;;;;;;;1.53;0.20;;;;;;;7.53;100.00;100628.69;5023923;28;20454;-79
2020/12/23 11:17:30;;;;;;;1.60;0.20;;;;;;;7.52;100.00;100643.97;5037600;28;20206;-78
2020/12/23 11:19:56;;;;;;;2.33;0.20;;;;;;;7.50;100.00;100638.16;5009766;28;20281;-78
2020/12/23 11:22:21;;;;;;;2.07;0.20;;;;;;;7.58;100.00;100633.81;5031341;28;20211;-78
2020/12/23 11:24:47;;;;;;;1.90;0.30;;;;;;;7.64;100.00;100629.81;5029578;28;20215;-78
2020/12/23 11:27:14;;;;;;;1.97;0.27;;;;;;;7.72;100.00;100620.88;5015243;28;20172;-78
2020/12/23 11:29:40;;;;;;;1.60;0.20;;;;;;;7.76;100.00;100621.75;5012886;28;20268;-78